Time;durP1;ratioP1;P1;durP2;ratioP2;P2;SDS_P1;SDS_P2;PMS_P1;PMS_P2;Temp;Humidity;BMP_temperature;BMP_pressure;BME280_temperature;BME280_humidity;BME280_pressure;Samples;Min_cycle;Max_cycle;Signal;HPM_P1;HPM_P2
2023/08/12 00:01:45;;;;;;;2.53;2.20;;;24.10;66.20;;;;;;6171672;23;20396;-73
2023/08/12 00:04:14;;;;;;;2.83;2.27;;;24.10;66.00;;;;;;6169570;23;20482;-72
2023/08/12 00:06:43;;;;;;;4.33;2.80;;;24.10;65.90;;;;;;6172108;23;20738;-72
2023/08/12 00:09:12;;;;;;;3.10;2.30;;;24.10;66.20;;;;;;6172167;23;20873;-73
2023/08/12 00:11:40;;;;;;;2.80;2.57;;;24.10;66.20;;;;;;6173105;23;20490;-73
2023/08/12 00:14:10;;;;;;;2.83;2.50;;;24.10;66.40;;;;;;6169878;23;20501;-73
2023/08/12 00:16:38;;;;;;;2.60;2.40;;;24.10;66.40;;;;;;6171644;23;20444;-73
2023/08/12 00:19:08;;;;;;;2.93;2.70;;;24.10;66.80;;;;;;6168992;23;20440;-73
2023/08/12 00:21:36;;;;;;;2.70;2.47;;;24.10;67.00;;;;;;6172558;23;20861;-73
2023/08/12 00:24:05;;;;;;;3.40;2.87;;;24.10;67.80;;;;;;6169497;23;20424;-73
2023/08/12 00:26:34;;;;;;;3.00;2.70;;;24.10;67.80;;;;;;6171316;23;20408;-73
2023/08/12 00:29:02;;;;;;;2.57;2.37;;;24.10;67.80;;;;;;6171019;22;20490;-73
2023/08/12 00:31:32;;;;;;;3.20;2.90;;;24.10;67.40;;;;;;6170936;23;20401;-74
2023/08/12 00:34:00;;;;;;;4.47;2.53;;;24.10;67.80;;;;;;6168519;23;20954;-72
2023/08/12 00:36:29;;;;;;;3.07;2.77;;;24.10;67.90;;;;;;6172784;23;20424;-72
2023/08/12 00:38:57;;;;;;;2.27;2.07;;;24.10;67.80;;;;;;6169934;23;20428;-73
2023/08/12 00:41:26;;;;;;;3.27;2.97;;;24.10;67.80;;;;;;6170818;23;20424;-73
2023/08/12 00:43:54;;;;;;;3.43;2.87;;;24.10;67.80;;;;;;6169289;23;20437;-73
2023/08/12 00:46:23;;;;;;;3.30;3.00;;;24.10;67.80;;;;;;6170950;23;20495;-72
2023/08/12 00:48:52;;;;;;;3.50;3.20;;;24.10;67.80;;;;;;6168783;23;20447;-71
2023/08/12 00:51:21;;;;;;;2.80;2.60;;;24.10;67.90;;;;;;6170453;23;20640;-73
2023/08/12 00:53:51;;;;;;;2.63;2.43;;;24.10;67.80;;;;;;6169613;23;20440;-72
2023/08/12 00:56:20;;;;;;;4.77;4.17;;;24.10;67.80;;;;;;6171067;23;20727;-73
2023/08/12 00:58:49;;;;;;;5.43;4.10;;;24.10;68.80;;;;;;6169464;23;20428;-74
2023/08/12 01:01:18;;;;;;;4.07;3.67;;;24.10;69.40;;;;;;6170242;23;20909;-73
2023/08/12 01:03:46;;;;;;;3.83;3.47;;;24.10;69.50;;;;;;6169439;23;20432;-72
2023/08/12 01:06:16;;;;;;;4.07;3.43;;;24.10;71.10;;;;;;6171348;23;20906;-73
2023/08/12 01:08:45;;;;;;;4.70;4.30;;;24.10;70.10;;;;;;6171763;23;20905;-72
2023/08/12 01:11:22;;;;;;;4.90;3.07;;;24.10;70.40;;;;;;6173160;23;20395;-73
2023/08/12 01:13:58;;;;;;;4.17;3.80;;;24.10;70.00;;;;;;6170985;23;20444;-73
2023/08/12 01:16:31;;;;;;;3.60;3.30;;;24.10;69.60;;;;;;6171414;23;20412;-73
2023/08/12 01:19:01;;;;;;;3.80;3.23;;;24.10;69.60;;;;;;6171506;22;20906;-72
2023/08/12 01:21:32;;;;;;;3.57;3.27;;;24.10;69.50;;;;;;6171289;23;20517;-73
2023/08/12 01:24:02;;;;;;;3.60;3.20;;;24.10;69.50;;;;;;6144632;23;20517;-73
2023/08/12 01:26:30;;;;;;;3.97;3.07;;;24.10;69.10;;;;;;6171238;23;20861;-73
2023/08/12 01:28:58;;;;;;;3.47;3.17;;;24.10;69.00;;;;;;6171156;23;20428;-72
2023/08/12 01:31:34;;;;;;;4.13;3.67;;;24.10;69.60;;;;;;6172587;23;20878;-73
2023/08/12 01:34:11;;;;;;;4.67;3.63;;;24.10;71.10;;;;;;6169842;23;20717;-73
2023/08/12 01:36:41;;;;;;;4.50;3.60;;;24.10;70.20;;;;;;6174053;23;20415;-72
2023/08/12 01:39:12;;;;;;;4.07;3.53;;;24.10;70.30;;;;;;6146186;23;20918;-72
2023/08/12 01:41:41;;;;;;;3.70;3.40;;;24.10;70.70;;;;;;6173512;23;20377;-71
2023/08/12 01:44:09;;;;;;;3.60;3.30;;;24.10;70.60;;;;;;6170999;23;20524;-72
2023/08/12 01:46:38;;;;;;;4.33;3.77;;;24.10;70.00;;;;;;6173088;23;20878;-72
2023/08/12 01:49:06;;;;;;;4.80;3.40;;;24.10;70.70;;;;;;6169711;23;20433;-71
2023/08/12 01:51:35;;;;;;;3.47;3.17;;;24.10;70.40;;;;;;6171904;23;20762;-73
2023/08/12 01:54:03;;;;;;;3.23;2.93;;;24.10;70.60;;;;;;6170352;23;20449;-72
2023/08/12 01:56:33;;;;;;;3.70;3.40;;;24.10;70.50;;;;;;6171883;23;20447;-72
2023/08/12 01:59:01;;;;;;;3.47;3.17;;;24.10;70.50;;;;;;6170060;23;20930;-73
2023/08/12 02:01:30;;;;;;;5.47;3.27;;;24.10;70.80;;;;;;6172349;23;20886;-73
2023/08/12 02:03:58;;;;;;;4.20;3.80;;;24.10;70.50;;;;;;6172769;23;20436;-73
2023/08/12 02:06:26;;;;;;;3.90;3.07;;;24.10;70.90;;;;;;6175826;23;20719;-74
2023/08/12 02:08:55;;;;;;;4.67;3.60;;;24.10;70.70;;;;;;6176429;23;20437;-72
2023/08/12 02:11:23;;;;;;;3.60;3.30;;;24.10;71.00;;;;;;6175682;23;20576;-73
2023/08/12 02:13:55;;;;;;;3.50;3.20;;;24.10;70.60;;;;;;6173984;23;20470;-72
2023/08/12 02:16:23;;;;;;;3.63;3.33;;;24.10;70.70;;;;;;6175669;23;20412;-73
2023/08/12 02:18:52;;;;;;;3.80;3.20;;;24.10;70.90;;;;;;6173358;23;20436;-73
2023/08/12 02:21:20;;;;;;;3.10;2.87;;;24.10;70.70;;;;;;6175196;23;20391;-72
2023/08/12 02:23:48;;;;;;;3.33;3.03;;;24.10;70.60;;;;;;6174604;23;20481;-72
2023/08/12 02:26:17;;;;;;;4.13;3.77;;;24.10;70.90;;;;;;6175271;23;20937;-72
2023/08/12 02:28:45;;;;;;;3.10;2.80;;;24.10;70.90;;;;;;6175125;23;20525;-72
2023/08/12 02:31:15;;;;;;;3.43;3.13;;;24.10;70.70;;;;;;6174883;23;20869;-71
2023/08/12 02:33:44;;;;;;;4.17;3.03;;;24.10;70.60;;;;;;6173579;23;20429;-72
2023/08/12 02:36:12;;;;;;;2.77;2.57;;;24.10;70.50;;;;;;6175990;23;20799;-72
2023/08/12 02:38:41;;;;;;;4.00;3.60;;;24.10;70.30;;;;;;6176278;22;20437;-73
2023/08/12 02:41:10;;;;;;;3.83;3.30;;;24.10;70.80;;;;;;6175109;23;20397;-73
2023/08/12 02:43:39;;;;;;;3.33;2.97;;;24.10;71.20;;;;;;6173390;23;20437;-73
2023/08/12 02:46:08;;;;;;;3.87;3.20;;;24.10;70.90;;;;;;6174988;23;20953;-73
2023/08/12 02:48:38;;;;;;;4.27;2.70;;;24.10;70.80;;;;;;6174694;23;20546;-73
2023/08/12 02:51:06;;;;;;;3.53;3.20;;;24.10;70.60;;;;;;6174705;23;20392;-73
2023/08/12 02:53:34;;;;;;;3.40;3.07;;;24.10;71.00;;;;;;6173260;23;20437;-72
2023/08/12 02:56:03;;;;;;;3.10;2.80;;;24.10;71.30;;;;;;6174749;23;20930;-72
2023/08/12 02:58:31;;;;;;;3.63;3.33;;;24.10;71.00;;;;;;6173630;23;21013;-73
2023/08/12 03:01:00;;;;;;;3.90;3.60;;;24.10;71.30;;;;;;6176512;23;20385;-73
2023/08/12 03:03:28;;;;;;;7.30;3.30;;;24.10;71.50;;;;;;6171870;23;20388;-72
2023/08/12 03:05:58;;;;;;;4.17;3.07;;;24.10;71.50;;;;;;6172153;23;20427;-71
2023/08/12 03:08:28;;;;;;;7.13;3.77;;;24.10;71.40;;;;;;6172095;23;20831;-72
2023/08/12 03:11:00;;;;;;;3.40;3.10;;;24.10;71.20;;;;;;6171932;23;20787;-73
2023/08/12 03:13:30;;;;;;;2.73;2.50;;;24.10;70.70;;;;;;6171027;23;20388;-72
2023/08/12 03:15:59;;;;;;;3.50;3.20;;;24.10;70.70;;;;;;6171657;23;20467;-72
2023/08/12 03:18:28;;;;;;;3.40;2.87;;;24.10;71.00;;;;;;6171176;23;20425;-73
2023/08/12 03:20:58;;;;;;;2.80;2.50;;;24.10;70.90;;;;;;6170764;23;20806;-72
2023/08/12 03:23:27;;;;;;;3.40;3.10;;;24.10;70.60;;;;;;6171408;23;20385;-72
2023/08/12 03:25:58;;;;;;;3.53;3.23;;;24.00;70.60;;;;;;6172090;23;20436;-73
2023/08/12 03:28:26;;;;;;;3.53;3.00;;;24.10;71.20;;;;;;6171303;23;20515;-72
2023/08/12 03:30:55;;;;;;;2.60;2.40;;;24.10;71.50;;;;;;6172742;23;20424;-72
2023/08/12 03:33:25;;;;;;;2.30;2.10;;;24.00;71.10;;;;;;6172063;23;21211;-73
2023/08/12 03:35:55;;;;;;;8.00;2.27;;;24.10;71.00;;;;;;6171720;23;20440;-73
2023/08/12 03:38:26;;;;;;;2.97;2.57;;;24.10;71.00;;;;;;6146858;23;20420;-73
2023/08/12 03:40:55;;;;;;;3.63;2.60;;;24.00;70.70;;;;;;6171812;23;20381;-71
2023/08/12 03:43:24;;;;;;;4.17;3.17;;;24.00;70.70;;;;;;6171175;23;20401;-71
2023/08/12 03:45:53;;;;;;;4.10;2.73;;;24.00;70.90;;;;;;6172417;23;20859;-73
2023/08/12 03:48:22;;;;;;;3.30;2.90;;;24.00;71.30;;;;;;6171900;23;20420;-73
2023/08/12 03:50:50;;;;;;;3.87;2.83;;;24.00;71.40;;;;;;6170721;23;21249;-72
2023/08/12 03:53:19;;;;;;;3.53;3.23;;;24.00;72.10;;;;;;6170193;23;20433;-71
2023/08/12 03:55:48;;;;;;;4.50;3.27;;;24.00;71.50;;;;;;6171932;23;20432;-73
2023/08/12 03:58:18;;;;;;;4.50;3.37;;;24.00;71.30;;;;;;6171008;23;20392;-72
2023/08/12 04:00:47;;;;;;;5.13;2.97;;;24.00;71.00;;;;;;6172241;23;20493;-73
2023/08/12 04:03:16;;;;;;;4.77;3.40;;;24.00;70.90;;;;;;6169778;23;20954;-73
2023/08/12 04:05:51;;;;;;;4.37;3.30;;;24.00;71.90;;;;;;6170563;23;20451;-71
2023/08/12 04:08:24;;;;;;;3.67;3.37;;;24.00;71.10;;;;;;6171367;23;20403;-72
2023/08/12 04:10:54;;;;;;;3.77;3.47;;;24.00;71.70;;;;;;6173662;23;20401;-71
2023/08/12 04:13:22;;;;;;;3.40;3.10;;;24.00;71.30;;;;;;6170499;23;20415;-73
2023/08/12 04:15:53;;;;;;;4.10;3.70;;;24.00;70.40;;;;;;6171890;23;20432;-73
2023/08/12 04:18:21;;;;;;;4.47;3.57;;;24.00;70.80;;;;;;6172316;23;20397;-72
2023/08/12 04:20:51;;;;;;;5.43;4.70;;;24.00;71.10;;;;;;6146253;23;20448;-72
2023/08/12 04:23:20;;;;;;;4.17;3.80;;;24.00;71.60;;;;;;6169792;23;20436;-72
2023/08/12 04:25:49;;;;;;;4.47;4.07;;;24.00;71.30;;;;;;6171057;23;20405;-72
2023/08/12 04:28:21;;;;;;;5.00;4.20;;;24.00;71.40;;;;;;6171306;23;20686;-72
2023/08/12 04:30:52;;;;;;;4.67;4.20;;;24.00;71.50;;;;;;6171836;23;20775;-72
2023/08/12 04:33:22;;;;;;;4.90;4.50;;;24.00;71.40;;;;;;6169562;23;20485;-73
2023/08/12 04:35:51;;;;;;;5.90;5.30;;;24.00;71.30;;;;;;6169680;23;20572;-73
2023/08/12 04:38:19;;;;;;;4.20;3.80;;;23.90;71.40;;;;;;6172933;23;20378;-71
2023/08/12 04:40:50;;;;;;;5.77;5.27;;;24.00;71.10;;;;;;6170837;23;20412;-72
2023/08/12 04:43:20;;;;;;;5.97;4.97;;;24.00;71.10;;;;;;6169412;23;20373;-73
2023/08/12 04:45:49;;;;;;;5.20;4.70;;;24.00;71.40;;;;;;6171156;23;20409;-72
2023/08/12 04:48:20;;;;;;;4.60;4.20;;;23.90;71.30;;;;;;6169806;23;20385;-71
2023/08/12 04:50:48;;;;;;;5.83;5.33;;;23.90;71.50;;;;;;6169449;23;20480;-72
2023/08/12 04:53:18;;;;;;;5.27;4.73;;;24.00;71.80;;;;;;6169937;23;20855;-72
2023/08/12 04:55:50;;;;;;;5.43;4.40;;;24.00;71.50;;;;;;6171086;23;20502;-73
2023/08/12 04:58:21;;;;;;;4.90;4.40;;;23.90;72.00;;;;;;6170194;23;20432;-71
2023/08/12 05:00:51;;;;;;;6.13;5.57;;;24.00;72.10;;;;;;6170873;23;20389;-73
2023/08/12 05:03:21;;;;;;;6.83;6.10;;;24.00;72.10;;;;;;6171742;23;20395;-72
2023/08/12 05:05:52;;;;;;;5.70;4.10;;;23.90;72.30;;;;;;6171773;22;20776;-72
2023/08/12 05:08:23;;;;;;;5.03;4.63;;;23.90;72.60;;;;;;6173028;23;20881;-71
2023/08/12 05:10:52;;;;;;;6.00;4.87;;;23.90;72.20;;;;;;6172713;23;20434;-73
2023/08/12 05:13:23;;;;;;;4.87;4.43;;;23.90;72.10;;;;;;6171414;23;20461;-72
2023/08/12 05:15:52;;;;;;;4.63;4.23;;;23.90;72.60;;;;;;6172632;23;20777;-74
2023/08/12 05:18:23;;;;;;;5.17;4.07;;;23.90;72.70;;;;;;6172843;23;20408;-72
2023/08/12 05:20:52;;;;;;;6.60;5.07;;;23.90;72.10;;;;;;6171717;23;20409;-73
2023/08/12 05:23:21;;;;;;;6.07;5.30;;;23.90;72.10;;;;;;6171681;23;20385;-72
2023/08/12 05:25:50;;;;;;;5.53;5.00;;;23.90;72.10;;;;;;6172467;23;20418;-72
2023/08/12 05:28:23;;;;;;;5.00;4.37;;;24.00;72.60;;;;;;6170657;23;20932;-72
2023/08/12 05:30:51;;;;;;;5.00;4.50;;;23.90;72.80;;;;;;6172355;23;20376;-72
2023/08/12 05:33:19;;;;;;;5.13;4.50;;;23.90;72.00;;;;;;6173216;23;20711;-73
2023/08/12 05:35:48;;;;;;;4.00;3.33;;;23.90;72.40;;;;;;6172104;23;20514;-71
2023/08/12 05:38:17;;;;;;;3.90;3.60;;;23.90;72.10;;;;;;6172393;23;20404;-73
2023/08/12 05:40:45;;;;;;;4.00;3.50;;;23.90;71.70;;;;;;6172233;23;20397;-74
2023/08/12 05:43:14;;;;;;;4.67;3.70;;;23.90;72.40;;;;;;6170267;23;20435;-73
2023/08/12 05:45:44;;;;;;;3.80;3.13;;;23.90;72.40;;;;;;6172993;23;20808;-74
2023/08/12 05:48:12;;;;;;;4.50;2.60;;;23.90;72.00;;;;;;6172757;23;20385;-72
2023/08/12 05:50:40;;;;;;;3.00;2.50;;;23.90;72.40;;;;;;6171555;23;20491;-72
2023/08/12 05:53:09;;;;;;;3.57;2.87;;;23.90;72.30;;;;;;6171520;23;20721;-73
2023/08/12 05:55:37;;;;;;;3.13;2.50;;;23.90;71.70;;;;;;6172714;23;20425;-72
2023/08/12 05:58:06;;;;;;;5.73;2.80;;;23.90;72.30;;;;;;6171505;23;20447;-72
2023/08/12 06:00:34;;;;;;;3.00;2.70;;;23.90;71.60;;;;;;6171474;23;20389;-72
2023/08/12 06:03:04;;;;;;;2.93;2.60;;;23.90;71.10;;;;;;6171632;23;20762;-72
2023/08/12 06:05:33;;;;;;;2.57;2.37;;;23.90;70.70;;;;;;6171427;23;20444;-72
2023/08/12 06:08:01;;;;;;;4.30;3.53;;;23.90;70.10;;;;;;6171766;23;20373;-72
2023/08/12 06:10:29;;;;;;;2.80;2.40;;;23.90;70.90;;;;;;6172986;23;20728;-73
2023/08/12 06:12:58;;;;;;;3.47;2.27;;;23.90;71.20;;;;;;6169891;23;20400;-72
2023/08/12 06:15:26;;;;;;;2.97;2.67;;;23.90;72.80;;;;;;6172137;23;20642;-73
2023/08/12 06:17:55;;;;;;;2.77;2.33;;;23.90;71.20;;;;;;6170860;23;20807;-72
2023/08/12 06:20:25;;;;;;;3.17;2.87;;;23.90;71.00;;;;;;6170778;23;20852;-73
2023/08/12 06:22:53;;;;;;;2.77;2.30;;;23.90;70.20;;;;;;6170907;23;20378;-72
2023/08/12 06:25:21;;;;;;;3.17;2.60;;;23.90;71.10;;;;;;6171666;23;20430;-72
2023/08/12 06:27:50;;;;;;;4.00;2.47;;;23.90;71.60;;;;;;6169870;23;20716;-72
2023/08/12 06:30:18;;;;;;;4.43;2.20;;;23.90;71.50;;;;;;6171155;23;20431;-72
2023/08/12 06:32:47;;;;;;;2.50;2.30;;;23.90;71.70;;;;;;6172063;23;20370;-72
2023/08/12 06:35:15;;;;;;;2.50;2.30;;;23.90;71.40;;;;;;6169836;23;20424;-72
2023/08/12 06:37:45;;;;;;;2.67;2.30;;;23.90;72.20;;;;;;6170798;23;20918;-73
2023/08/12 06:40:13;;;;;;;7.90;2.57;;;23.90;72.00;;;;;;6170674;23;20790;-72
2023/08/12 06:42:41;;;;;;;3.33;2.00;;;23.80;71.50;;;;;;6172231;23;20393;-72
2023/08/12 06:45:14;;;;;;;3.47;2.90;;;23.90;71.50;;;;;;6170941;23;20411;-72
2023/08/12 06:47:42;;;;;;;2.80;2.50;;;23.90;71.60;;;;;;6171800;23;20802;-73
2023/08/12 06:50:10;;;;;;;2.80;2.23;;;23.80;72.00;;;;;;6170762;23;20393;-72
2023/08/12 06:52:39;;;;;;;3.07;2.50;;;23.80;72.20;;;;;;6172745;23;20389;-72
2023/08/12 06:55:09;;;;;;;2.67;2.20;;;23.80;71.90;;;;;;6173133;23;20465;-73
2023/08/12 06:57:37;;;;;;;2.47;2.00;;;23.90;71.50;;;;;;6171576;23;20417;-71
2023/08/12 07:00:07;;;;;;;3.00;2.53;;;23.90;71.50;;;;;;6171353;23;20494;-73
2023/08/12 07:02:36;;;;;;;3.57;2.70;;;23.80;72.10;;;;;;6170724;23;20714;-72
2023/08/12 07:05:05;;;;;;;6.53;2.57;;;23.80;72.00;;;;;;6170214;23;20424;-72
2023/08/12 07:07:33;;;;;;;2.63;2.43;;;23.80;71.90;;;;;;6171417;23;20442;-72
2023/08/12 07:10:01;;;;;;;2.77;2.47;;;23.80;71.50;;;;;;6170592;23;20915;-72
2023/08/12 07:12:32;;;;;;;3.03;2.73;;;23.90;71.60;;;;;;6169529;23;20405;-72
2023/08/12 07:15:00;;;;;;;2.83;2.43;;;23.90;72.20;;;;;;6170555;23;20432;-73
2023/08/12 07:17:29;;;;;;;2.87;2.07;;;23.80;72.10;;;;;;6168174;23;20428;-73
2023/08/12 07:19:57;;;;;;;3.83;2.30;;;23.80;71.50;;;;;;6170309;23;20467;-72
2023/08/12 07:22:26;;;;;;;2.37;2.17;;;23.80;72.10;;;;;;6171147;23;20400;-72
2023/08/12 07:24:55;;;;;;;2.10;1.47;;;23.80;72.80;;;;;;6169824;23;20433;-74
2023/08/12 07:27:23;;;;;;;2.40;1.97;;;23.80;72.60;;;;;;6171266;23;20400;-73
2023/08/12 07:29:53;;;;;;;2.33;2.13;;;23.80;73.40;;;;;;6170225;23;20773;-72
2023/08/12 07:32:22;;;;;;;3.70;1.70;;;23.80;72.70;;;;;;6171141;23;20397;-73
2023/08/12 07:34:51;;;;;;;3.10;2.10;;;23.80;73.00;;;;;;6169764;23;20436;-71
2023/08/12 07:37:19;;;;;;;2.63;1.90;;;23.80;74.90;;;;;;6170952;23;20425;-72
2023/08/12 07:39:47;;;;;;;3.67;2.40;;;23.80;75.30;;;;;;6169975;23;20910;-73
2023/08/12 07:42:16;;;;;;;2.10;1.90;;;23.80;73.70;;;;;;6170275;23;20396;-73
2023/08/12 07:44:44;;;;;;;3.97;2.30;;;23.80;74.80;;;;;;6170302;23;20520;-73
2023/08/12 07:47:15;;;;;;;3.30;2.13;;;23.80;76.80;;;;;;6172350;23;20435;-72
2023/08/12 07:49:44;;;;;;;1.83;1.63;;;23.80;75.50;;;;;;6169665;23;20811;-72
2023/08/12 07:52:12;;;;;;;3.10;2.03;;;23.80;76.30;;;;;;6172224;23;20905;-72
2023/08/12 07:54:41;;;;;;;2.70;1.80;;;23.80;76.50;;;;;;6170493;23;20780;-72
2023/08/12 07:57:09;;;;;;;2.20;1.97;;;23.80;76.30;;;;;;6171183;23;20436;-72
2023/08/12 07:59:38;;;;;;;1.93;1.67;;;23.80;75.90;;;;;;6170767;23;20429;-73
2023/08/12 08:02:06;;;;;;;2.30;2.10;;;23.80;76.10;;;;;;6171552;23;20408;-73
2023/08/12 08:04:36;;;;;;;2.60;2.20;;;23.80;77.30;;;;;;6170021;23;20459;-72
2023/08/12 08:07:04;;;;;;;2.27;1.80;;;23.80;82.40;;;;;;6171180;23;20409;-71
2023/08/12 08:09:33;;;;;;;2.20;1.90;;;23.80;76.10;;;;;;6170540;23;20768;-71
2023/08/12 08:12:01;;;;;;;2.23;1.97;;;23.80;74.90;;;;;;6170686;23;20401;-71
2023/08/12 08:14:30;;;;;;;2.40;2.03;;;23.80;74.60;;;;;;6170745;23;20489;-73
2023/08/12 08:16:58;;;;;;;2.47;2.27;;;23.80;75.20;;;;;;6172488;23;20424;-72
2023/08/12 08:19:27;;;;;;;2.80;2.47;;;23.80;75.20;;;;;;6170182;23;20832;-72
2023/08/12 08:21:59;;;;;;;2.60;2.13;;;23.80;76.80;;;;;;6171443;23;20476;-73
2023/08/12 08:24:28;;;;;;;2.60;2.20;;;23.80;76.80;;;;;;6170587;23;20928;-73
2023/08/12 08:26:56;;;;;;;1.70;1.60;;;23.80;76.70;;;;;;6172045;23;20798;-72
2023/08/12 08:29:24;;;;;;;1.87;1.67;;;23.80;77.40;;;;;;6170187;23;20439;-73
2023/08/12 08:31:53;;;;;;;2.20;2.00;;;23.80;78.90;;;;;;6171408;23;20389;-72
2023/08/12 08:34:21;;;;;;;2.60;2.40;;;23.80;74.40;;;;;;6169390;23;20432;-72
2023/08/12 08:36:51;;;;;;;2.23;1.80;;;23.80;73.90;;;;;;6146753;23;20424;-72
2023/08/12 08:39:21;;;;;;;2.30;2.10;;;23.80;74.90;;;;;;6170479;23;20460;-72
2023/08/12 08:41:50;;;;;;;2.03;1.50;;;23.80;76.50;;;;;;6171268;23;20404;-74
2023/08/12 08:44:22;;;;;;;2.20;2.00;;;23.80;73.60;;;;;;6171031;23;20849;-72
2023/08/12 08:46:54;;;;;;;1.77;1.50;;;23.80;74.60;;;;;;6171597;23;20469;-71
2023/08/12 08:49:23;;;;;;;2.70;2.37;;;23.80;74.20;;;;;;6168934;23;20442;-72
2023/08/12 08:51:53;;;;;;;2.33;2.07;;;23.80;74.90;;;;;;6171850;23;20404;-73
2023/08/12 08:54:23;;;;;;;1.60;1.50;;;23.80;77.10;;;;;;6170636;23;20440;-72
2023/08/12 08:56:51;;;;;;;2.10;1.73;;;23.80;78.00;;;;;;6172346;23;20405;-73
2023/08/12 08:59:30;;;;;;;2.80;2.00;;;23.80;80.20;;;;;;6170643;23;20493;-73
2023/08/12 09:02:00;;;;;;;1.80;1.30;;;23.80;80.60;;;;;;6172035;23;20456;-72
2023/08/12 09:04:29;;;;;;;2.20;2.00;;;23.80;81.10;;;;;;6170421;23;20949;-73
2023/08/12 09:06:58;;;;;;;2.50;1.80;;;23.80;77.60;;;;;;6171930;23;21063;-73
2023/08/12 09:09:29;;;;;;;2.13;1.50;;;23.80;76.70;;;;;;6171662;23;20508;-72
2023/08/12 09:11:57;;;;;;;1.90;1.70;;;23.80;76.80;;;;;;6173951;23;20391;-72
2023/08/12 09:14:25;;;;;;;2.17;1.97;;;23.80;77.00;;;;;;6170852;23;20437;-73
2023/08/12 09:16:55;;;;;;;1.87;1.40;;;23.80;77.80;;;;;;6170973;23;20418;-73
2023/08/12 09:19:25;;;;;;;1.70;1.60;;;23.80;77.40;;;;;;6169744;23;20520;-72
2023/08/12 09:21:54;;;;;;;1.57;1.47;;;23.80;78.10;;;;;;6172022;23;20411;-73
2023/08/12 09:24:25;;;;;;;1.50;1.30;;;23.80;78.40;;;;;;6170376;23;20440;-72
2023/08/12 09:26:56;;;;;;;2.00;1.47;;;23.80;77.60;;;;;;6172446;23;20416;-73
2023/08/12 09:29:25;;;;;;;1.87;1.70;;;23.80;80.10;;;;;;6170276;23;20938;-73
2023/08/12 09:31:53;;;;;;;1.60;1.47;;;23.80;85.40;;;;;;6173895;23;20381;-73
2023/08/12 09:34:21;;;;;;;1.70;1.60;;;23.80;89.00;;;;;;6170471;23;20440;-72
2023/08/12 09:36:50;;;;;;;1.70;1.60;;;23.80;82.50;;;;;;6172357;23;20494;-73
2023/08/12 09:39:19;;;;;;;2.17;1.70;;;23.80;81.80;;;;;;6171153;23;20432;-72
2023/08/12 09:41:48;;;;;;;1.60;1.50;;;23.80;81.60;;;;;;6172953;23;20389;-72
2023/08/12 09:44:18;;;;;;;1.70;1.20;;;23.80;81.60;;;;;;6171094;23;20513;-72
2023/08/12 09:46:46;;;;;;;1.77;1.60;;;23.80;81.20;;;;;;6172125;23;20413;-73
2023/08/12 09:49:14;;;;;;;2.63;1.70;;;23.80;81.50;;;;;;6170298;23;21107;-72
2023/08/12 09:51:43;;;;;;;2.20;1.63;;;23.80;78.00;;;;;;6172157;23;20397;-73
2023/08/12 09:54:12;;;;;;;1.90;1.40;;;23.80;77.90;;;;;;6170434;23;20769;-73
2023/08/12 09:56:47;;;;;;;1.80;1.47;;;23.80;77.20;;;;;;6172551;23;20413;-73
2023/08/12 09:59:21;;;;;;;2.00;1.60;;;23.80;77.10;;;;;;6170890;23;20437;-73
2023/08/12 10:01:51;;;;;;;1.77;1.23;;;23.80;77.80;;;;;;6174215;23;20413;-73
2023/08/12 10:04:24;;;;;;;2.50;1.57;;;23.80;77.20;;;;;;6170414;23;20433;-72
2023/08/12 10:06:53;;;;;;;2.50;1.73;;;23.80;77.80;;;;;;6173919;23;20400;-72
2023/08/12 10:09:21;;;;;;;1.90;1.43;;;23.80;79.40;;;;;;6171230;23;20441;-72
2023/08/12 10:11:52;;;;;;;1.60;1.30;;;23.80;78.40;;;;;;6171134;23;20906;-72
2023/08/12 10:14:22;;;;;;;1.50;1.30;;;23.80;78.60;;;;;;6170501;23;20856;-72
2023/08/12 10:16:51;;;;;;;1.67;1.30;;;23.80;78.70;;;;;;6172100;23;20413;-72
2023/08/12 10:19:26;;;;;;;1.20;1.10;;;23.80;79.80;;;;;;6168794;23;20444;-72
2023/08/12 10:21:57;;;;;;;1.50;1.33;;;23.80;79.60;;;;;;6171377;23;20381;-72
2023/08/12 10:24:27;;;;;;;1.60;1.50;;;23.80;79.10;;;;;;6170757;23;20502;-72
2023/08/12 10:26:56;;;;;;;1.67;1.57;;;23.80;78.80;;;;;;6171994;23;20405;-71
2023/08/12 10:29:26;;;;;;;3.13;1.83;;;23.80;79.50;;;;;;6170178;23;20772;-72
2023/08/12 10:31:54;;;;;;;1.67;1.53;;;23.80;80.00;;;;;;6171461;23;20373;-72
2023/08/12 10:34:24;;;;;;;1.50;1.37;;;23.80;80.60;;;;;;6171772;23;20433;-72
2023/08/12 10:36:56;;;;;;;1.67;1.47;;;23.80;77.40;;;;;;6172088;23;20411;-72
2023/08/12 10:39:33;;;;;;;1.53;1.40;;;23.80;78.00;;;;;;6170745;23;20852;-71
2023/08/12 10:42:01;;;;;;;1.93;1.47;;;23.80;78.30;;;;;;6173198;23;20815;-71
2023/08/12 10:44:41;;;;;;;1.70;1.60;;;23.80;80.00;;;;;;6169951;23;20443;-73
2023/08/12 10:47:11;;;;;;;2.03;1.60;;;23.80;79.50;;;;;;6171894;23;20409;-71
2023/08/12 10:49:43;;;;;;;1.87;1.67;;;23.80;79.40;;;;;;6170614;23;20436;-72
2023/08/12 10:52:27;;;;;;;2.03;1.23;;;23.80;78.60;;;;;;6172641;23;20850;-74
2023/08/12 10:54:55;;;;;;;1.80;1.60;;;23.80;77.80;;;;;;6170613;23;20444;-72
2023/08/12 10:57:37;;;;;;;1.80;1.20;;;23.80;76.80;;;;;;6171771;23;20440;-73
2023/08/12 11:00:13;;;;;;;1.60;1.30;;;23.80;76.60;;;;;;6169644;23;20448;-72
2023/08/12 11:02:44;;;;;;;1.83;1.57;;;23.80;76.40;;;;;;6172493;23;20376;-72
2023/08/12 11:05:14;;;;;;;1.60;1.07;;;23.80;76.00;;;;;;6170550;23;20800;-72
2023/08/12 11:07:44;;;;;;;2.57;1.60;;;23.80;70.50;;;;;;6172507;23;20401;-72
2023/08/12 11:10:14;;;;;;;1.70;1.50;;;23.80;71.80;;;;;;6171267;23;20413;-73
2023/08/12 11:12:46;;;;;;;2.17;1.10;;;23.80;71.20;;;;;;6170260;23;20746;-73
2023/08/12 11:15:16;;;;;;;1.63;1.50;;;23.80;71.60;;;;;;6171200;23;20397;-72
2023/08/12 11:17:47;;;;;;;1.53;1.33;;;23.80;71.30;;;;;;6171678;23;20381;-74
2023/08/12 11:20:16;;;;;;;1.70;1.20;;;23.80;71.50;;;;;;6170639;23;20954;-73
2023/08/12 11:22:45;;;;;;;2.00;1.10;;;23.80;71.30;;;;;;6171037;23;20923;-72
2023/08/12 11:25:14;;;;;;;1.77;1.23;;;23.80;71.50;;;;;;6171310;23;20489;-73
2023/08/12 11:27:47;;;;;;;2.00;1.27;;;23.70;71.10;;;;;;6170986;23;20377;-72
2023/08/12 11:30:19;;;;;;;3.07;1.20;;;23.80;71.20;;;;;;6145989;23;20447;-71
2023/08/12 11:32:49;;;;;;;4.73;1.30;;;23.80;71.40;;;;;;6172078;22;20397;-72
2023/08/12 11:35:19;;;;;;;1.80;1.07;;;23.80;71.00;;;;;;6173877;23;20739;-72
2023/08/12 11:37:49;;;;;;;3.60;1.70;;;23.70;70.90;;;;;;6172568;23;20385;-72
2023/08/12 11:40:18;;;;;;;2.43;1.30;;;23.80;70.80;;;;;;6171955;23;20417;-73
2023/08/12 11:42:48;;;;;;;2.00;1.30;;;23.80;71.00;;;;;;6171716;23;20404;-72
2023/08/12 11:45:19;;;;;;;1.50;1.40;;;23.80;70.80;;;;;;6172134;23;20443;-73
2023/08/12 11:47:52;;;;;;;2.50;1.47;;;23.80;72.20;;;;;;6172381;23;20377;-73
2023/08/12 11:50:23;;;;;;;1.50;1.23;;;23.80;70.80;;;;;;6171711;23;20377;-72
2023/08/12 11:52:52;;;;;;;1.77;1.50;;;23.80;70.80;;;;;;6171718;23;20398;-73
2023/08/12 11:55:20;;;;;;;1.70;1.07;;;23.80;70.80;;;;;;6171025;23;20504;-72
2023/08/12 11:57:49;;;;;;;1.60;1.50;;;23.80;70.60;;;;;;6171476;23;20505;-71
2023/08/12 12:00:19;;;;;;;1.80;1.33;;;23.80;70.60;;;;;;6171472;23;20432;-73
2023/08/12 12:02:50;;;;;;;1.53;1.27;;;23.80;70.70;;;;;;6171052;23;20456;-72
2023/08/12 12:05:23;;;;;;;1.30;1.20;;;23.80;70.90;;;;;;6170707;23;20409;-72
2023/08/12 12:07:53;;;;;;;1.60;1.20;;;23.80;70.90;;;;;;6171423;23;20508;-74
2023/08/12 12:10:27;;;;;;;1.50;1.20;;;23.80;70.70;;;;;;6170835;23;20805;-71
2023/08/12 12:13:01;;;;;;;1.77;1.30;;;23.80;71.20;;;;;;6170408;23;20373;-72
2023/08/12 12:15:31;;;;;;;1.43;1.17;;;23.80;71.00;;;;;;6171097;23;20421;-72
2023/08/12 12:18:00;;;;;;;1.80;1.50;;;23.80;70.90;;;;;;6171045;23;20381;-71
2023/08/12 12:20:29;;;;;;;3.80;1.10;;;24.00;79.10;;;;;;6170356;23;20863;-71
2023/08/12 12:22:57;;;;;;;2.23;1.20;;;24.30;76.10;;;;;;6170904;23;20776;-71
2023/08/12 12:25:26;;;;;;;1.90;1.20;;;24.60;75.50;;;;;;6170086;23;20873;-71
2023/08/12 12:27:55;;;;;;;1.70;1.40;;;24.50;75.70;;;;;;6170143;23;20482;-71
2023/08/12 12:30:23;;;;;;;1.30;1.20;;;24.40;75.40;;;;;;6171280;23;20409;-71
2023/08/12 12:32:54;;;;;;;3.63;1.03;;;24.30;76.40;;;;;;6170440;23;20399;-71
2023/08/12 12:35:23;;;;;;;1.30;0.80;;;24.30;76.40;;;;;;6170503;23;20572;-72
2023/08/12 12:37:52;;;;;;;1.10;0.80;;;24.30;76.50;;;;;;6170467;23;20460;-72
2023/08/12 12:40:20;;;;;;;1.00;0.70;;;24.30;76.50;;;;;;6170891;23;20702;-70
2023/08/12 12:42:49;;;;;;;2.10;0.70;;;24.30;76.60;;;;;;6170717;23;20393;-70
2023/08/12 12:45:17;;;;;;;0.90;0.57;;;24.20;77.20;;;;;;6170807;23;20429;-71
2023/08/12 12:47:45;;;;;;;1.23;0.53;;;24.10;78.10;;;;;;6171897;23;20403;-71
2023/08/12 12:50:16;;;;;;;1.20;0.70;;;24.10;79.70;;;;;;6170314;23;20499;-72
2023/08/12 12:52:45;;;;;;;1.17;0.63;;;24.10;80.60;;;;;;6171006;23;20870;-72
2023/08/12 12:55:13;;;;;;;1.23;0.67;;;24.00;82.10;;;;;;6171488;23;20443;-72
2023/08/12 12:57:42;;;;;;;0.90;0.67;;;24.10;81.20;;;;;;6170717;23;20882;-71
2023/08/12 13:00:12;;;;;;;1.50;0.80;;;24.10;80.20;;;;;;6170142;23;20448;-71